Date,TemperatureHighF,TemperatureAvgF,TemperatureLowF,DewpointHighF,DewpointAvgF,DewpointLowF,HumidityHigh,HumidityAvg,HumidityLow,PressureMaxIn,PressureMinIn,WindSpeedMaxMPH,WindSpeedAvgMPH,GustSpeedMaxMPH,PrecipitationSumIn
2013-2-1,25,22,20,20,17,5,98,81,45,0.00,40.00,10,7,22,0.00
2013-2-2,38,28,21,14,5,-4,48,39,20,0.00,40.00,5,2,12,0.00
2013-2-3,35,29,25,6,-5,-21,39,24,9,0.00,40.00,4,2,12,0.00
2013-2-4,29,26,22,15,9,4,62,49,41,0.00,40.00,7,5,15,0.00
2013-2-5,40,32,26,20,13,7,55,45,29,0.00,40.00,4,3,14,0.00
2013-2-6,32,24,17,17,11,0,83,58,31,0.00,40.00,7,3,16,0.00
2013-2-7,32,25,17,11,-6,-18,55,26,15,0.00,40.00,9,5,22,0.00
2013-2-8,24,20,15,19,15,11,95,80,60,0.00,40.00,20,10,38,0.00
2013-2-9,18,14,10,16,10,7,93,87,77,0.00,40.00,9,3,17,0.00
2013-2-10,15,10,7,12,8,6,95,91,85,0.00,40.00,5,2,13,0.00
2013-2-11,16,8,3,12,3,-5,94,82,61,0.00,40.00,5,2,11,0.00
2013-2-12,15,10,5,14,8,0,97,92,77,0.00,40.00,7,4,17,0.00
2013-2-13,23,18,14,20,17,14,98,94,85,0.00,40.00,7,4,20,0.00
2013-2-14,24,18,15,18,14,7,98,84,66,0.00,40.00,9,6,25,0.00
2013-2-15,28,20,14,17,11,1,97,72,34,0.00,40.00,7,4,14,0.00
2013-2-16,35,29,24,10,3,-7,44,32,18,0.00,40.00,9,5,19,0.00
2013-2-17,31,22,9,19,8,-5,90,61,20,0.00,40.00,16,7,36,0.00
2013-2-18,23,16,7,12,3,-17,90,63,15,0.00,40.00,5,3,12,0.00
2013-2-19,28,24,19,11,6,1,57,46,36,0.00,40.00,12,8,27,0.00
2013-2-20,23,20,16,19,16,14,98,86,78,0.00,40.00,7,5,16,0.00
2013-2-21,18,12,6,15,10,4,97,90,82,0.00,40.00,9,5,19,0.00
2013-2-22,14,10,6,10,6,3,91,86,74,0.00,40.00,9,5,19,0.00
2013-2-23,20,12,5,18,10,4,94,91,85,0.00,40.00,15,6,31,0.00
2013-2-24,14,8,5,10,6,3,93,88,83,0.00,40.00,8,5,19,0.00
2013-2-25,30,16,7,15,2,-15,90,56,25,0.00,40.00,8,3,18,0.00
2013-2-26,10,7,5,9,5,1,95,89,82,0.00,40.00,10,6,21,0.00
2013-2-27,19,12,4,6,2,-2,91,64,46,0.00,40.00,5,3,11,0.00
2013-2-28,22,17,16,12,4,0,66,55,47,0.00,40.00,7,6,15,0.00